sensor_id;sensor_type;location;lat;lon;timestamp;P1;durP1;ratioP1;P2;durP2;ratioP2
5587;SDS011;2816;49.778;9.986;2024-02-14T00:00:05;3.23;;;2.93;;
5587;SDS011;2816;49.778;9.986;2024-02-14T00:02:35;8.60;;;3.30;;
5587;SDS011;2816;49.778;9.986;2024-02-14T00:05:04;8.00;;;3.07;;
5587;SDS011;2816;49.778;9.986;2024-02-14T00:07:31;3.80;;;2.70;;
5587;SDS011;2816;49.778;9.986;2024-02-14T00:09:58;5.00;;;3.00;;
5587;SDS011;2816;49.778;9.986;2024-02-14T00:12:25;5.63;;;3.10;;
5587;SDS011;2816;49.778;9.986;2024-02-14T00:14:52;4.40;;;3.00;;
5587;SDS011;2816;49.778;9.986;2024-02-14T00:17:20;5.10;;;2.63;;
5587;SDS011;2816;49.778;9.986;2024-02-14T00:19:47;2.77;;;2.57;;
5587;SDS011;2816;49.778;9.986;2024-02-14T00:22:15;3.33;;;2.73;;
5587;SDS011;2816;49.778;9.986;2024-02-14T00:24:42;4.13;;;2.73;;
5587;SDS011;2816;49.778;9.986;2024-02-14T00:27:09;4.30;;;3.00;;
5587;SDS011;2816;49.778;9.986;2024-02-14T00:29:36;7.63;;;4.67;;
5587;SDS011;2816;49.778;9.986;2024-02-14T00:32:03;5.83;;;3.70;;
5587;SDS011;2816;49.778;9.986;2024-02-14T00:34:30;7.27;;;3.10;;
5587;SDS011;2816;49.778;9.986;2024-02-14T00:36:57;4.20;;;2.70;;
5587;SDS011;2816;49.778;9.986;2024-02-14T00:39:25;3.70;;;3.00;;
5587;SDS011;2816;49.778;9.986;2024-02-14T00:41:52;5.60;;;3.27;;
5587;SDS011;2816;49.778;9.986;2024-02-14T00:44:19;5.13;;;3.17;;
5587;SDS011;2816;49.778;9.986;2024-02-14T00:46:46;3.30;;;2.93;;
5587;SDS011;2816;49.778;9.986;2024-02-14T00:49:14;4.60;;;3.13;;
5587;SDS011;2816;49.778;9.986;2024-02-14T00:51:41;4.13;;;3.07;;
5587;SDS011;2816;49.778;9.986;2024-02-14T00:54:08;8.70;;;3.50;;
5587;SDS011;2816;49.778;9.986;2024-02-14T00:56:36;4.70;;;2.97;;
5587;SDS011;2816;49.778;9.986;2024-02-14T00:59:03;3.70;;;2.80;;
5587;SDS011;2816;49.778;9.986;2024-02-14T01:01:31;3.40;;;2.83;;
5587;SDS011;2816;49.778;9.986;2024-02-14T01:03:58;4.53;;;3.13;;
5587;SDS011;2816;49.778;9.986;2024-02-14T01:06:24;3.40;;;2.77;;
5587;SDS011;2816;49.778;9.986;2024-02-14T01:08:52;3.53;;;2.50;;
5587;SDS011;2816;49.778;9.986;2024-02-14T01:11:19;3.50;;;2.43;;
5587;SDS011;2816;49.778;9.986;2024-02-14T01:13:48;5.67;;;3.30;;
5587;SDS011;2816;49.778;9.986;2024-02-14T01:16:14;3.17;;;2.57;;
5587;SDS011;2816;49.778;9.986;2024-02-14T01:18:41;3.87;;;2.97;;
5587;SDS011;2816;49.778;9.986;2024-02-14T01:21:08;4.47;;;3.13;;
5587;SDS011;2816;49.778;9.986;2024-02-14T01:23:35;3.13;;;2.30;;
5587;SDS011;2816;49.778;9.986;2024-02-14T01:26:02;2.73;;;2.40;;
5587;SDS011;2816;49.778;9.986;2024-02-14T01:28:29;6.40;;;2.80;;
5587;SDS011;2816;49.778;9.986;2024-02-14T01:30:58;4.73;;;2.60;;
5587;SDS011;2816;49.778;9.986;2024-02-14T01:33:25;5.23;;;2.63;;
5587;SDS011;2816;49.778;9.986;2024-02-14T01:35:52;3.90;;;2.90;;
5587;SDS011;2816;49.778;9.986;2024-02-14T01:38:21;3.20;;;2.57;;
5587;SDS011;2816;49.778;9.986;2024-02-14T01:40:48;3.50;;;2.77;;
5587;SDS011;2816;49.778;9.986;2024-02-14T01:43:15;4.00;;;2.50;;
5587;SDS011;2816;49.778;9.986;2024-02-14T01:45:42;3.03;;;2.70;;
5587;SDS011;2816;49.778;9.986;2024-02-14T01:48:11;3.90;;;2.60;;
5587;SDS011;2816;49.778;9.986;2024-02-14T01:50:43;3.67;;;2.40;;
5587;SDS011;2816;49.778;9.986;2024-02-14T01:53:11;9.50;;;2.43;;
5587;SDS011;2816;49.778;9.986;2024-02-14T01:55:38;5.80;;;2.60;;
5587;SDS011;2816;49.778;9.986;2024-02-14T01:58:06;5.23;;;2.37;;
5587;SDS011;2816;49.778;9.986;2024-02-14T02:00:34;2.60;;;2.40;;
5587;SDS011;2816;49.778;9.986;2024-02-14T02:03:01;3.83;;;2.67;;
5587;SDS011;2816;49.778;9.986;2024-02-14T02:05:30;3.13;;;2.27;;
5587;SDS011;2816;49.778;9.986;2024-02-14T02:08:00;5.70;;;2.80;;
5587;SDS011;2816;49.778;9.986;2024-02-14T02:10:27;3.00;;;2.30;;
5587;SDS011;2816;49.778;9.986;2024-02-14T02:12:57;3.03;;;2.40;;
5587;SDS011;2816;49.778;9.986;2024-02-14T02:15:25;4.17;;;2.40;;
5587;SDS011;2816;49.778;9.986;2024-02-14T02:17:53;6.87;;;2.13;;
5587;SDS011;2816;49.778;9.986;2024-02-14T02:20:20;2.90;;;2.60;;
5587;SDS011;2816;49.778;9.986;2024-02-14T02:22:48;3.17;;;1.80;;
5587;SDS011;2816;49.778;9.986;2024-02-14T02:25:15;5.00;;;2.43;;
5587;SDS011;2816;49.778;9.986;2024-02-14T02:27:42;4.23;;;2.47;;
5587;SDS011;2816;49.778;9.986;2024-02-14T02:30:09;4.60;;;2.07;;
5587;SDS011;2816;49.778;9.986;2024-02-14T02:32:38;3.33;;;2.57;;
5587;SDS011;2816;49.778;9.986;2024-02-14T02:35:06;5.70;;;2.60;;
5587;SDS011;2816;49.778;9.986;2024-02-14T02:37:34;4.03;;;2.10;;
5587;SDS011;2816;49.778;9.986;2024-02-14T02:40:03;6.70;;;2.70;;
5587;SDS011;2816;49.778;9.986;2024-02-14T02:42:32;2.53;;;2.33;;
5587;SDS011;2816;49.778;9.986;2024-02-14T02:44:59;5.23;;;2.60;;
5587;SDS011;2816;49.778;9.986;2024-02-14T02:47:27;3.87;;;2.63;;
5587;SDS011;2816;49.778;9.986;2024-02-14T02:49:54;3.33;;;2.20;;
5587;SDS011;2816;49.778;9.986;2024-02-14T02:52:24;4.20;;;2.30;;
5587;SDS011;2816;49.778;9.986;2024-02-14T02:54:53;4.50;;;2.37;;
5587;SDS011;2816;49.778;9.986;2024-02-14T02:57:21;3.73;;;2.20;;
5587;SDS011;2816;49.778;9.986;2024-02-14T02:59:48;4.63;;;2.33;;
5587;SDS011;2816;49.778;9.986;2024-02-14T03:02:15;2.67;;;2.43;;
5587;SDS011;2816;49.778;9.986;2024-02-14T03:04:44;4.40;;;2.27;;
5587;SDS011;2816;49.778;9.986;2024-02-14T03:07:11;3.10;;;2.30;;
5587;SDS011;2816;49.778;9.986;2024-02-14T03:09:38;4.33;;;1.97;;
5587;SDS011;2816;49.778;9.986;2024-02-14T03:12:06;3.97;;;2.10;;
5587;SDS011;2816;49.778;9.986;2024-02-14T03:14:35;4.00;;;2.47;;
5587;SDS011;2816;49.778;9.986;2024-02-14T03:17:02;2.30;;;2.10;;
5587;SDS011;2816;49.778;9.986;2024-02-14T03:19:30;3.00;;;2.43;;
5587;SDS011;2816;49.778;9.986;2024-02-14T03:22:02;3.73;;;2.40;;
5587;SDS011;2816;49.778;9.986;2024-02-14T03:24:30;3.50;;;2.53;;
5587;SDS011;2816;49.778;9.986;2024-02-14T03:27:00;2.80;;;2.60;;
5587;SDS011;2816;49.778;9.986;2024-02-14T03:29:31;2.80;;;2.43;;
5587;SDS011;2816;49.778;9.986;2024-02-14T03:32:01;3.10;;;2.50;;
5587;SDS011;2816;49.778;9.986;2024-02-14T03:34:29;8.13;;;2.33;;
5587;SDS011;2816;49.778;9.986;2024-02-14T03:36:58;5.50;;;2.70;;
5587;SDS011;2816;49.778;9.986;2024-02-14T03:39:27;12.60;;;2.90;;
5587;SDS011;2816;49.778;9.986;2024-02-14T03:41:54;2.87;;;2.40;;
5587;SDS011;2816;49.778;9.986;2024-02-14T03:44:21;3.03;;;2.37;;
5587;SDS011;2816;49.778;9.986;2024-02-14T03:46:48;6.10;;;3.20;;
5587;SDS011;2816;49.778;9.986;2024-02-14T03:49:17;2.70;;;2.30;;
5587;SDS011;2816;49.778;9.986;2024-02-14T03:51:43;8.30;;;2.60;;
5587;SDS011;2816;49.778;9.986;2024-02-14T03:54:10;2.73;;;2.40;;
5587;SDS011;2816;49.778;9.986;2024-02-14T03:56:37;2.83;;;2.30;;
5587;SDS011;2816;49.778;9.986;2024-02-14T03:59:04;7.70;;;2.50;;
5587;SDS011;2816;49.778;9.986;2024-02-14T04:01:32;5.60;;;2.20;;
5587;SDS011;2816;49.778;9.986;2024-02-14T04:04:00;3.90;;;2.17;;
5587;SDS011;2816;49.778;9.986;2024-02-14T04:06:29;3.30;;;2.60;;
5587;SDS011;2816;49.778;9.986;2024-02-14T04:08:57;2.57;;;2.30;;
5587;SDS011;2816;49.778;9.986;2024-02-14T04:11:25;2.60;;;2.40;;
5587;SDS011;2816;49.778;9.986;2024-02-14T04:13:51;2.60;;;1.90;;
5587;SDS011;2816;49.778;9.986;2024-02-14T04:16:19;6.40;;;2.60;;
5587;SDS011;2816;49.778;9.986;2024-02-14T04:18:48;3.60;;;2.70;;
5587;SDS011;2816;49.778;9.986;2024-02-14T04:21:15;9.33;;;2.40;;
5587;SDS011;2816;49.778;9.986;2024-02-14T04:23:43;3.80;;;2.40;;
5587;SDS011;2816;49.778;9.986;2024-02-14T04:26:10;6.77;;;2.83;;
5587;SDS011;2816;49.778;9.986;2024-02-14T04:28:45;3.00;;;2.30;;
5587;SDS011;2816;49.778;9.986;2024-02-14T04:31:12;6.00;;;2.57;;
5587;SDS011;2816;49.778;9.986;2024-02-14T04:33:39;3.13;;;2.27;;
5587;SDS011;2816;49.778;9.986;2024-02-14T04:36:08;7.07;;;2.10;;
5587;SDS011;2816;49.778;9.986;2024-02-14T04:38:36;4.43;;;2.60;;
5587;SDS011;2816;49.778;9.986;2024-02-14T04:41:07;5.33;;;2.63;;
5587;SDS011;2816;49.778;9.986;2024-02-14T04:43:35;5.13;;;2.67;;
5587;SDS011;2816;49.778;9.986;2024-02-14T04:46:03;2.67;;;2.00;;
5587;SDS011;2816;49.778;9.986;2024-02-14T04:48:33;3.53;;;2.27;;
5587;SDS011;2816;49.778;9.986;2024-02-14T04:51:00;3.30;;;1.80;;
5587;SDS011;2816;49.778;9.986;2024-02-14T04:53:27;2.30;;;2.00;;
5587;SDS011;2816;49.778;9.986;2024-02-14T04:55:54;3.47;;;2.33;;
5587;SDS011;2816;49.778;9.986;2024-02-14T04:58:23;9.10;;;2.63;;
5587;SDS011;2816;49.778;9.986;2024-02-14T05:00:51;3.30;;;2.30;;
5587;SDS011;2816;49.778;9.986;2024-02-14T05:03:20;5.33;;;2.60;;
5587;SDS011;2816;49.778;9.986;2024-02-14T05:05:49;3.00;;;2.17;;
5587;SDS011;2816;49.778;9.986;2024-02-14T05:08:16;3.40;;;2.20;;
5587;SDS011;2816;49.778;9.986;2024-02-14T05:10:42;6.53;;;2.37;;
5587;SDS011;2816;49.778;9.986;2024-02-14T05:13:10;3.87;;;2.70;;
5587;SDS011;2816;49.778;9.986;2024-02-14T05:15:39;4.00;;;2.17;;
5587;SDS011;2816;49.778;9.986;2024-02-14T05:18:06;4.00;;;1.87;;
5587;SDS011;2816;49.778;9.986;2024-02-14T05:20:34;5.50;;;2.37;;
5587;SDS011;2816;49.778;9.986;2024-02-14T05:23:03;2.23;;;1.77;;
5587;SDS011;2816;49.778;9.986;2024-02-14T05:25:30;2.53;;;2.23;;
5587;SDS011;2816;49.778;9.986;2024-02-14T05:27:58;3.77;;;2.23;;
5587;SDS011;2816;49.778;9.986;2024-02-14T05:30:26;3.20;;;2.10;;
5587;SDS011;2816;49.778;9.986;2024-02-14T05:32:54;7.47;;;2.37;;
5587;SDS011;2816;49.778;9.986;2024-02-14T05:35:22;4.90;;;2.03;;
5587;SDS011;2816;49.778;9.986;2024-02-14T05:37:49;2.50;;;2.03;;
5587;SDS011;2816;49.778;9.986;2024-02-14T05:40:16;2.83;;;1.90;;
5587;SDS011;2816;49.778;9.986;2024-02-14T05:42:43;6.80;;;2.10;;
5587;SDS011;2816;49.778;9.986;2024-02-14T05:45:10;9.93;;;2.23;;
5587;SDS011;2816;49.778;9.986;2024-02-14T05:47:38;8.43;;;2.07;;
5587;SDS011;2816;49.778;9.986;2024-02-14T05:50:07;5.57;;;2.80;;
5587;SDS011;2816;49.778;9.986;2024-02-14T05:52:36;2.97;;;2.00;;
5587;SDS011;2816;49.778;9.986;2024-02-14T05:55:05;4.03;;;2.03;;
5587;SDS011;2816;49.778;9.986;2024-02-14T05:57:33;5.17;;;2.23;;
5587;SDS011;2816;49.778;9.986;2024-02-14T06:00:02;6.70;;;2.33;;
5587;SDS011;2816;49.778;9.986;2024-02-14T06:02:29;3.33;;;2.00;;
5587;SDS011;2816;49.778;9.986;2024-02-14T06:04:56;6.20;;;2.23;;
5587;SDS011;2816;49.778;9.986;2024-02-14T06:07:24;5.53;;;2.60;;
5587;SDS011;2816;49.778;9.986;2024-02-14T06:09:51;3.37;;;1.90;;
5587;SDS011;2816;49.778;9.986;2024-02-14T06:12:18;5.43;;;2.47;;
5587;SDS011;2816;49.778;9.986;2024-02-14T06:14:47;2.70;;;2.17;;
5587;SDS011;2816;49.778;9.986;2024-02-14T06:17:15;4.00;;;2.40;;
5587;SDS011;2816;49.778;9.986;2024-02-14T06:19:42;3.60;;;2.30;;
5587;SDS011;2816;49.778;9.986;2024-02-14T06:22:08;3.50;;;2.03;;
5587;SDS011;2816;49.778;9.986;2024-02-14T06:24:37;6.20;;;2.27;;
5587;SDS011;2816;49.778;9.986;2024-02-14T06:27:04;2.23;;;1.87;;
5587;SDS011;2816;49.778;9.986;2024-02-14T06:29:31;2.50;;;2.07;;
5587;SDS011;2816;49.778;9.986;2024-02-14T06:31:58;4.87;;;2.03;;
5587;SDS011;2816;49.778;9.986;2024-02-14T06:34:25;4.63;;;2.30;;
5587;SDS011;2816;49.778;9.986;2024-02-14T06:36:53;2.50;;;2.23;;
5587;SDS011;2816;49.778;9.986;2024-02-14T06:39:20;5.13;;;2.40;;
5587;SDS011;2816;49.778;9.986;2024-02-14T06:41:48;4.40;;;2.00;;
5587;SDS011;2816;49.778;9.986;2024-02-14T06:44:15;2.70;;;2.33;;
5587;SDS011;2816;49.778;9.986;2024-02-14T06:46:43;4.13;;;2.20;;
5587;SDS011;2816;49.778;9.986;2024-02-14T06:49:10;3.20;;;2.03;;
5587;SDS011;2816;49.778;9.986;2024-02-14T06:51:37;1.87;;;1.67;;
5587;SDS011;2816;49.778;9.986;2024-02-14T06:54:04;3.60;;;2.37;;
5587;SDS011;2816;49.778;9.986;2024-02-14T06:56:30;5.53;;;2.13;;
5587;SDS011;2816;49.778;9.986;2024-02-14T06:59:00;3.13;;;2.20;;
5587;SDS011;2816;49.778;9.986;2024-02-14T07:01:28;5.53;;;1.90;;
5587;SDS011;2816;49.778;9.986;2024-02-14T07:03:55;3.57;;;2.10;;
5587;SDS011;2816;49.778;9.986;2024-02-14T07:06:22;3.93;;;2.07;;
5587;SDS011;2816;49.778;9.986;2024-02-14T07:08:49;2.33;;;1.80;;
5587;SDS011;2816;49.778;9.986;2024-02-14T07:11:16;3.73;;;2.00;;
5587;SDS011;2816;49.778;9.986;2024-02-14T07:13:43;2.60;;;1.90;;
5587;SDS011;2816;49.778;9.986;2024-02-14T07:16:11;4.90;;;2.30;;
5587;SDS011;2816;49.778;9.986;2024-02-14T07:18:38;3.40;;;2.17;;
5587;SDS011;2816;49.778;9.986;2024-02-14T07:21:06;3.97;;;1.77;;
5587;SDS011;2816;49.778;9.986;2024-02-14T07:23:33;3.37;;;2.03;;
5587;SDS011;2816;49.778;9.986;2024-02-14T07:26:00;3.83;;;2.07;;
5587;SDS011;2816;49.778;9.986;2024-02-14T07:28:27;5.33;;;2.17;;
5587;SDS011;2816;49.778;9.986;2024-02-14T07:30:54;6.73;;;2.00;;
5587;SDS011;2816;49.778;9.986;2024-02-14T07:33:22;4.63;;;2.10;;
5587;SDS011;2816;49.778;9.986;2024-02-14T07:35:50;2.50;;;1.80;;
5587;SDS011;2816;49.778;9.986;2024-02-14T07:38:16;2.93;;;2.10;;
5587;SDS011;2816;49.778;9.986;2024-02-14T07:40:43;6.20;;;2.30;;
5587;SDS011;2816;49.778;9.986;2024-02-14T07:43:10;4.20;;;2.50;;
5587;SDS011;2816;49.778;9.986;2024-02-14T07:45:37;3.50;;;2.63;;
5587;SDS011;2816;49.778;9.986;2024-02-14T07:48:05;4.77;;;2.10;;
5587;SDS011;2816;49.778;9.986;2024-02-14T07:50:34;3.97;;;2.20;;
5587;SDS011;2816;49.778;9.986;2024-02-14T07:53:02;4.90;;;2.20;;
5587;SDS011;2816;49.778;9.986;2024-02-14T07:55:29;5.03;;;2.70;;
5587;SDS011;2816;49.778;9.986;2024-02-14T07:57:56;2.10;;;1.90;;
5587;SDS011;2816;49.778;9.986;2024-02-14T08:00:24;4.03;;;2.17;;
5587;SDS011;2816;49.778;9.986;2024-02-14T08:02:51;3.70;;;2.60;;
5587;SDS011;2816;49.778;9.986;2024-02-14T08:05:18;3.47;;;1.90;;
5587;SDS011;2816;49.778;9.986;2024-02-14T08:07:47;4.47;;;2.10;;
5587;SDS011;2816;49.778;9.986;2024-02-14T08:10:14;5.63;;;2.10;;
5587;SDS011;2816;49.778;9.986;2024-02-14T08:12:41;2.30;;;2.07;;
5587;SDS011;2816;49.778;9.986;2024-02-14T08:15:08;9.27;;;2.30;;
5587;SDS011;2816;49.778;9.986;2024-02-14T08:17:35;5.87;;;2.40;;
5587;SDS011;2816;49.778;9.986;2024-02-14T08:20:03;2.97;;;1.73;;
5587;SDS011;2816;49.778;9.986;2024-02-14T08:22:30;3.27;;;1.90;;
5587;SDS011;2816;49.778;9.986;2024-02-14T08:24:59;4.40;;;2.30;;
5587;SDS011;2816;49.778;9.986;2024-02-14T08:27:26;1.87;;;1.60;;
5587;SDS011;2816;49.778;9.986;2024-02-14T08:29:53;3.73;;;1.90;;
5587;SDS011;2816;49.778;9.986;2024-02-14T08:32:20;3.23;;;1.70;;
5587;SDS011;2816;49.778;9.986;2024-02-14T08:34:47;5.03;;;2.40;;
5587;SDS011;2816;49.778;9.986;2024-02-14T08:37:16;4.83;;;2.27;;
5587;SDS011;2816;49.778;9.986;2024-02-14T08:39:43;7.23;;;2.10;;
5587;SDS011;2816;49.778;9.986;2024-02-14T08:42:11;3.90;;;2.57;;
5587;SDS011;2816;49.778;9.986;2024-02-14T08:44:38;5.87;;;2.80;;
5587;SDS011;2816;49.778;9.986;2024-02-14T08:47:06;8.70;;;3.50;;
5587;SDS011;2816;49.778;9.986;2024-02-14T08:49:34;5.87;;;2.33;;
5587;SDS011;2816;49.778;9.986;2024-02-14T08:52:01;5.53;;;2.33;;
5587;SDS011;2816;49.778;9.986;2024-02-14T08:54:28;7.63;;;2.40;;
5587;SDS011;2816;49.778;9.986;2024-02-14T08:56:55;6.27;;;2.53;;
5587;SDS011;2816;49.778;9.986;2024-02-14T08:59:25;5.70;;;2.57;;
5587;SDS011;2816;49.778;9.986;2024-02-14T09:01:52;3.97;;;2.13;;
5587;SDS011;2816;49.778;9.986;2024-02-14T09:04:19;10.33;;;2.10;;
5587;SDS011;2816;49.778;9.986;2024-02-14T09:06:46;3.07;;;2.13;;
5587;SDS011;2816;49.778;9.986;2024-02-14T09:09:13;7.67;;;2.93;;
5587;SDS011;2816;49.778;9.986;2024-02-14T09:11:40;4.30;;;2.10;;
5587;SDS011;2816;49.778;9.986;2024-02-14T09:14:07;3.90;;;1.90;;
5587;SDS011;2816;49.778;9.986;2024-02-14T09:16:37;5.20;;;2.53;;
5587;SDS011;2816;49.778;9.986;2024-02-14T09:19:04;3.03;;;2.10;;
5587;SDS011;2816;49.778;9.986;2024-02-14T09:21:33;4.57;;;2.00;;
5587;SDS011;2816;49.778;9.986;2024-02-14T09:24:01;4.50;;;1.93;;
5587;SDS011;2816;49.778;9.986;2024-02-14T09:26:28;6.20;;;3.37;;
5587;SDS011;2816;49.778;9.986;2024-02-14T09:28:55;11.37;;;5.83;;
5587;SDS011;2816;49.778;9.986;2024-02-14T09:31:22;8.43;;;4.23;;
5587;SDS011;2816;49.778;9.986;2024-02-14T09:33:51;10.93;;;3.50;;
5587;SDS011;2816;49.778;9.986;2024-02-14T09:36:21;18.70;;;6.30;;
5587;SDS011;2816;49.778;9.986;2024-02-14T09:38:48;10.63;;;6.03;;
5587;SDS011;2816;49.778;9.986;2024-02-14T09:41:15;11.30;;;4.30;;
5587;SDS011;2816;49.778;9.986;2024-02-14T09:43:48;8.47;;;3.63;;
5587;SDS011;2816;49.778;9.986;2024-02-14T09:46:15;7.07;;;4.20;;
5587;SDS011;2816;49.778;9.986;2024-02-14T09:48:43;6.07;;;2.53;;
5587;SDS011;2816;49.778;9.986;2024-02-14T09:51:11;10.97;;;4.10;;
5587;SDS011;2816;49.778;9.986;2024-02-14T09:53:39;3.90;;;2.17;;
5587;SDS011;2816;49.778;9.986;2024-02-14T09:56:06;5.20;;;3.00;;
5587;SDS011;2816;49.778;9.986;2024-02-14T09:58:36;10.00;;;3.77;;
5587;SDS011;2816;49.778;9.986;2024-02-14T10:01:04;5.30;;;3.07;;
5587;SDS011;2816;49.778;9.986;2024-02-14T10:03:31;5.10;;;2.30;;
5587;SDS011;2816;49.778;9.986;2024-02-14T10:06:00;3.13;;;2.07;;
5587;SDS011;2816;49.778;9.986;2024-02-14T10:08:28;6.90;;;2.40;;
5587;SDS011;2816;49.778;9.986;2024-02-14T10:10:56;9.77;;;2.70;;
5587;SDS011;2816;49.778;9.986;2024-02-14T10:13:26;8.93;;;2.80;;
5587;SDS011;2816;49.778;9.986;2024-02-14T10:15:54;4.83;;;2.97;;
5587;SDS011;2816;49.778;9.986;2024-02-14T10:18:22;8.03;;;3.20;;
5587;SDS011;2816;49.778;9.986;2024-02-14T10:20:53;6.23;;;3.30;;
5587;SDS011;2816;49.778;9.986;2024-02-14T10:23:21;3.20;;;2.20;;
5587;SDS011;2816;49.778;9.986;2024-02-14T10:25:49;5.83;;;2.37;;
5587;SDS011;2816;49.778;9.986;2024-02-14T10:28:17;8.70;;;2.47;;
5587;SDS011;2816;49.778;9.986;2024-02-14T10:30:45;8.53;;;2.60;;
5587;SDS011;2816;49.778;9.986;2024-02-14T10:33:14;1.83;;;1.73;;
5587;SDS011;2816;49.778;9.986;2024-02-14T10:35:41;10.50;;;2.90;;
5587;SDS011;2816;49.778;9.986;2024-02-14T10:38:09;6.80;;;2.27;;
5587;SDS011;2816;49.778;9.986;2024-02-14T10:40:37;6.93;;;2.33;;
5587;SDS011;2816;49.778;9.986;2024-02-14T10:43:06;6.70;;;2.70;;
5587;SDS011;2816;49.778;9.986;2024-02-14T10:45:34;3.20;;;2.67;;
5587;SDS011;2816;49.778;9.986;2024-02-14T10:48:03;2.80;;;2.20;;
5587;SDS011;2816;49.778;9.986;2024-02-14T10:50:32;5.77;;;2.60;;
5587;SDS011;2816;49.778;9.986;2024-02-14T10:53:00;5.80;;;2.43;;
5587;SDS011;2816;49.778;9.986;2024-02-14T10:55:31;5.10;;;2.60;;
5587;SDS011;2816;49.778;9.986;2024-02-14T10:57:59;4.27;;;2.30;;
5587;SDS011;2816;49.778;9.986;2024-02-14T11:00:28;4.57;;;2.30;;
5587;SDS011;2816;49.778;9.986;2024-02-14T11:02:57;4.30;;;2.10;;
5587;SDS011;2816;49.778;9.986;2024-02-14T11:05:27;4.83;;;2.80;;
5587;SDS011;2816;49.778;9.986;2024-02-14T11:07:53;5.77;;;2.80;;
5587;SDS011;2816;49.778;9.986;2024-02-14T11:10:22;5.90;;;2.40;;
5587;SDS011;2816;49.778;9.986;2024-02-14T11:12:49;4.83;;;2.30;;
5587;SDS011;2816;49.778;9.986;2024-02-14T11:15:17;11.17;;;3.07;;
5587;SDS011;2816;49.778;9.986;2024-02-14T11:17:47;2.37;;;1.90;;
5587;SDS011;2816;49.778;9.986;2024-02-14T11:20:17;6.20;;;2.77;;
5587;SDS011;2816;49.778;9.986;2024-02-14T11:22:54;6.40;;;2.47;;
5587;SDS011;2816;49.778;9.986;2024-02-14T11:25:23;5.50;;;2.70;;
5587;SDS011;2816;49.778;9.986;2024-02-14T11:27:54;5.77;;;2.20;;
5587;SDS011;2816;49.778;9.986;2024-02-14T11:30:30;3.70;;;2.77;;
5587;SDS011;2816;49.778;9.986;2024-02-14T11:35:55;4.63;;;2.20;;
5587;SDS011;2816;49.778;9.986;2024-02-14T11:38:23;7.20;;;4.20;;
5587;SDS011;2816;49.778;9.986;2024-02-14T11:40:53;4.50;;;3.10;;
5587;SDS011;2816;49.778;9.986;2024-02-14T11:43:21;4.10;;;2.60;;
5587;SDS011;2816;49.778;9.986;2024-02-14T11:45:49;2.67;;;1.93;;
5587;SDS011;2816;49.778;9.986;2024-02-14T11:48:17;4.83;;;2.20;;
5587;SDS011;2816;49.778;9.986;2024-02-14T11:50:47;9.67;;;3.97;;
5587;SDS011;2816;49.778;9.986;2024-02-14T11:53:14;10.50;;;6.60;;
5587;SDS011;2816;49.778;9.986;2024-02-14T11:55:43;13.80;;;6.30;;
5587;SDS011;2816;49.778;9.986;2024-02-14T11:58:12;7.20;;;3.80;;
5587;SDS011;2816;49.778;9.986;2024-02-14T12:00:41;6.93;;;3.53;;
5587;SDS011;2816;49.778;9.986;2024-02-14T12:03:10;3.60;;;3.30;;
5587;SDS011;2816;49.778;9.986;2024-02-14T12:05:39;5.63;;;3.33;;
5587;SDS011;2816;49.778;9.986;2024-02-14T12:08:09;3.40;;;3.10;;
5587;SDS011;2816;49.778;9.986;2024-02-14T12:10:37;4.10;;;2.40;;
5587;SDS011;2816;49.778;9.986;2024-02-14T12:13:07;4.83;;;2.60;;
5587;SDS011;2816;49.778;9.986;2024-02-14T12:15:41;4.33;;;3.03;;
5587;SDS011;2816;49.778;9.986;2024-02-14T12:18:08;5.03;;;2.70;;
5587;SDS011;2816;49.778;9.986;2024-02-14T12:20:37;4.80;;;2.30;;
5587;SDS011;2816;49.778;9.986;2024-02-14T12:23:04;5.10;;;2.77;;
5587;SDS011;2816;49.778;9.986;2024-02-14T12:25:33;5.30;;;2.70;;
5587;SDS011;2816;49.778;9.986;2024-02-14T12:28:00;4.80;;;2.43;;
5587;SDS011;2816;49.778;9.986;2024-02-14T12:30:35;5.23;;;2.60;;
5587;SDS011;2816;49.778;9.986;2024-02-14T12:33:10;3.57;;;3.00;;
5587;SDS011;2816;49.778;9.986;2024-02-14T12:35:39;4.80;;;2.40;;
5587;SDS011;2816;49.778;9.986;2024-02-14T12:38:08;6.10;;;2.03;;
5587;SDS011;2816;49.778;9.986;2024-02-14T12:40:37;5.43;;;2.40;;
5587;SDS011;2816;49.778;9.986;2024-02-14T12:43:06;6.40;;;2.40;;
5587;SDS011;2816;49.778;9.986;2024-02-14T12:45:33;2.83;;;2.33;;
5587;SDS011;2816;49.778;9.986;2024-02-14T12:48:00;6.40;;;3.10;;
5587;SDS011;2816;49.778;9.986;2024-02-14T12:50:28;5.43;;;2.43;;
5587;SDS011;2816;49.778;9.986;2024-02-14T12:52:59;6.90;;;2.47;;
5587;SDS011;2816;49.778;9.986;2024-02-14T12:55:27;3.50;;;2.40;;
5587;SDS011;2816;49.778;9.986;2024-02-14T12:57:55;3.73;;;2.90;;
5587;SDS011;2816;49.778;9.986;2024-02-14T13:00:22;2.87;;;2.30;;
5587;SDS011;2816;49.778;9.986;2024-02-14T13:02:50;3.93;;;2.87;;
5587;SDS011;2816;49.778;9.986;2024-02-14T13:05:18;4.50;;;3.03;;
5587;SDS011;2816;49.778;9.986;2024-02-14T13:07:45;4.87;;;3.00;;
5587;SDS011;2816;49.778;9.986;2024-02-14T13:10:13;3.90;;;3.13;;
5587;SDS011;2816;49.778;9.986;2024-02-14T13:12:39;5.17;;;2.93;;
5587;SDS011;2816;49.778;9.986;2024-02-14T13:15:10;2.77;;;2.20;;
5587;SDS011;2816;49.778;9.986;2024-02-14T13:17:37;5.57;;;2.60;;
5587;SDS011;2816;49.778;9.986;2024-02-14T13:20:04;5.03;;;3.20;;
5587;SDS011;2816;49.778;9.986;2024-02-14T13:22:33;7.67;;;3.37;;
5587;SDS011;2816;49.778;9.986;2024-02-14T13:25:01;8.30;;;3.40;;
5587;SDS011;2816;49.778;9.986;2024-02-14T13:27:30;3.37;;;2.50;;
5587;SDS011;2816;49.778;9.986;2024-02-14T13:29:58;4.60;;;3.00;;
5587;SDS011;2816;49.778;9.986;2024-02-14T13:32:26;5.73;;;3.10;;
5587;SDS011;2816;49.778;9.986;2024-02-14T13:34:53;4.73;;;3.20;;
5587;SDS011;2816;49.778;9.986;2024-02-14T13:37:20;2.97;;;2.67;;
5587;SDS011;2816;49.778;9.986;2024-02-14T13:39:47;4.70;;;2.73;;
5587;SDS011;2816;49.778;9.986;2024-02-14T13:42:14;5.37;;;2.57;;
5587;SDS011;2816;49.778;9.986;2024-02-14T13:44:41;8.63;;;3.13;;
5587;SDS011;2816;49.778;9.986;2024-02-14T13:47:08;4.63;;;2.40;;
5587;SDS011;2816;49.778;9.986;2024-02-14T13:49:36;2.57;;;2.37;;
5587;SDS011;2816;49.778;9.986;2024-02-14T13:52:03;2.97;;;2.27;;
5587;SDS011;2816;49.778;9.986;2024-02-14T13:54:30;7.30;;;2.77;;
5587;SDS011;2816;49.778;9.986;2024-02-14T13:56:57;2.93;;;2.13;;
5587;SDS011;2816;49.778;9.986;2024-02-14T13:59:24;3.03;;;2.10;;
5587;SDS011;2816;49.778;9.986;2024-02-14T14:01:51;3.43;;;2.40;;
5587;SDS011;2816;49.778;9.986;2024-02-14T14:04:18;4.17;;;1.90;;
5587;SDS011;2816;49.778;9.986;2024-02-14T14:06:47;3.00;;;1.90;;
5587;SDS011;2816;49.778;9.986;2024-02-14T14:09:14;2.30;;;1.80;;
5587;SDS011;2816;49.778;9.986;2024-02-14T14:11:41;3.17;;;2.07;;
5587;SDS011;2816;49.778;9.986;2024-02-14T14:14:08;1.60;;;1.50;;
5587;SDS011;2816;49.778;9.986;2024-02-14T14:16:40;3.03;;;1.80;;
5587;SDS011;2816;49.778;9.986;2024-02-14T14:19:08;3.10;;;1.70;;
5587;SDS011;2816;49.778;9.986;2024-02-14T14:21:36;2.60;;;2.20;;
5587;SDS011;2816;49.778;9.986;2024-02-14T14:24:05;2.60;;;1.90;;
5587;SDS011;2816;49.778;9.986;2024-02-14T14:26:35;2.30;;;1.77;;
5587;SDS011;2816;49.778;9.986;2024-02-14T14:29:03;3.00;;;1.97;;
5587;SDS011;2816;49.778;9.986;2024-02-14T14:31:30;2.43;;;2.13;;
5587;SDS011;2816;49.778;9.986;2024-02-14T14:33:58;2.40;;;1.87;;
5587;SDS011;2816;49.778;9.986;2024-02-14T14:36:26;2.13;;;2.03;;
5587;SDS011;2816;49.778;9.986;2024-02-14T14:38:53;2.07;;;1.90;;
5587;SDS011;2816;49.778;9.986;2024-02-14T14:41:21;2.20;;;2.00;;
5587;SDS011;2816;49.778;9.986;2024-02-14T14:43:48;2.20;;;2.00;;
5587;SDS011;2816;49.778;9.986;2024-02-14T14:46:15;2.50;;;2.23;;
5587;SDS011;2816;49.778;9.986;2024-02-14T14:48:42;2.40;;;2.20;;
5587;SDS011;2816;49.778;9.986;2024-02-14T14:51:09;1.90;;;1.80;;
5587;SDS011;2816;49.778;9.986;2024-02-14T14:53:36;3.20;;;1.97;;
5587;SDS011;2816;49.778;9.986;2024-02-14T14:56:03;5.93;;;2.43;;
5587;SDS011;2816;49.778;9.986;2024-02-14T14:58:31;2.50;;;2.30;;
5587;SDS011;2816;49.778;9.986;2024-02-14T15:01:00;3.17;;;1.90;;
5587;SDS011;2816;49.778;9.986;2024-02-14T15:03:28;2.33;;;2.13;;
5587;SDS011;2816;49.778;9.986;2024-02-14T15:05:58;1.83;;;1.73;;
5587;SDS011;2816;49.778;9.986;2024-02-14T15:08:25;1.93;;;1.83;;
5587;SDS011;2816;49.778;9.986;2024-02-14T15:10:53;2.43;;;2.00;;
5587;SDS011;2816;49.778;9.986;2024-02-14T15:13:23;3.07;;;2.17;;
5587;SDS011;2816;49.778;9.986;2024-02-14T15:15:52;4.73;;;2.20;;
5587;SDS011;2816;49.778;9.986;2024-02-14T15:18:19;3.10;;;2.20;;
5587;SDS011;2816;49.778;9.986;2024-02-14T15:20:46;1.87;;;1.77;;